Time;durP1;ratioP1;P1;durP2;ratioP2;P2;SDS_P1;SDS_P2;PMS_P1;PMS_P2;Temp;Humidity;BMP_temperature;BMP_pressure;BME280_temperature;BME280_humidity;BME280_pressure;Samples;Min_cycle;Max_cycle;Signal;HPM_P1;HPM_P2
2023/07/28 00:01:27;;;;;;;3.50;1.62;;;;;;;18.77;54.96;98796.50;4483124;32;35284;-82
2023/07/28 00:03:57;;;;;;;4.37;1.70;;;;;;;18.43;56.06;98799.09;4482628;32;34630;-82
2023/07/28 00:06:25;;;;;;;6.12;2.08;;;;;;;18.56;55.48;98797.00;4482782;32;33583;-83
2023/07/28 00:08:52;;;;;;;4.40;1.80;;;;;;;18.45;55.97;98795.53;4482820;32;34061;-83
2023/07/28 00:11:20;;;;;;;3.70;1.65;;;;;;;18.57;55.88;98794.38;4482722;32;34970;-82
2023/07/28 00:13:48;;;;;;;3.22;1.70;;;;;;;18.71;55.66;98796.66;4482514;32;34195;-83
2023/07/28 00:16:15;;;;;;;4.32;1.80;;;;;;;18.84;55.27;98800.69;4482359;32;33810;-82
2023/07/28 00:18:43;;;;;;;4.37;1.62;;;;;;;18.76;55.34;98793.94;4482656;32;34610;-83
2023/07/28 00:21:10;;;;;;;4.40;1.83;;;;;;;18.74;55.34;98796.56;4482584;32;35030;-82
2023/07/28 00:23:38;;;;;;;3.28;1.67;;;;;;;18.75;55.30;98792.19;4482518;32;33949;-83
2023/07/28 00:26:06;;;;;;;3.87;1.37;;;;;;;18.74;54.92;98785.22;4481246;32;34240;-87
2023/07/28 00:28:33;;;;;;;4.93;1.75;;;;;;;18.79;55.37;98784.22;4482578;32;33922;-82
2023/07/28 00:31:01;;;;;;;6.10;1.50;;;;;;;18.67;55.91;98780.06;4482009;32;35042;-83
2023/07/28 00:33:30;;;;;;;4.20;1.80;;;;;;;18.82;55.75;98778.84;4482412;32;34255;-82
2023/07/28 00:35:57;;;;;;;4.40;2.03;;;;;;;18.91;55.55;98783.88;4482096;32;34253;-82
2023/07/28 00:38:25;;;;;;;4.37;1.85;;;;;;;18.85;55.66;98770.03;4481926;32;33921;-82
2023/07/28 00:40:55;;;;;;;4.37;1.85;;;;;;;18.79;55.78;98784.22;4482138;31;32818;-82
2023/07/28 00:43:24;;;;;;;8.60;1.85;;;;;;;18.91;54.71;98780.38;4482472;32;33951;-81
2023/07/28 00:45:53;;;;;;;4.47;1.73;;;;;;;18.99;54.95;98778.41;4480207;32;34236;-83
2023/07/28 00:48:22;;;;;;;4.40;2.00;;;;;;;18.90;55.72;98782.16;4482287;32;33723;-82
2023/07/28 00:50:51;;;;;;;4.18;1.92;;;;;;;18.93;55.74;98771.53;4480754;32;34093;-83
2023/07/28 00:53:19;;;;;;;4.55;1.83;;;;;;;18.73;55.85;98771.22;4480799;32;33694;-83
2023/07/28 00:55:47;;;;;;;3.83;1.80;;;;;;;19.05;55.69;98775.59;4480605;32;33503;-83
2023/07/28 00:58:14;;;;;;;5.00;1.60;;;;;;;18.99;55.69;98772.28;4482125;32;34619;-82
2023/07/28 01:00:43;;;;;;;4.00;2.10;;;;;;;19.06;55.13;98776.47;4481369;32;34275;-82
2023/07/28 01:03:10;;;;;;;3.85;1.90;;;;;;;19.26;54.94;98774.13;4481933;32;35022;-82
2023/07/28 01:06:16;;;;;;;5.50;2.25;;;;;;;19.25;54.90;98780.31;4481988;32;33537;-83
2023/07/28 01:09:03;;;;;;;5.05;2.05;;;;;;;19.48;53.69;98771.75;4481959;32;34048;-82
2023/07/28 01:11:31;;;;;;;5.25;1.80;;;;;;;19.32;53.09;98766.09;4480623;32;34641;-83
2023/07/28 01:13:58;;;;;;;4.18;1.80;;;;;;;19.45;53.73;98767.44;4480649;32;34057;-82
2023/07/28 01:16:26;;;;;;;3.97;1.90;;;;;;;19.40;54.31;98774.59;4482931;32;33702;-82
2023/07/28 01:18:53;;;;;;;4.60;2.05;;;;;;;19.42;54.26;98772.78;4484017;32;34232;-88
2023/07/28 01:21:25;;;;;;;3.53;1.70;;;;;;;19.49;53.62;98767.34;4483531;32;34281;-82
2023/07/28 01:24:07;;;;;;;3.78;2.08;;;;;;;19.47;53.21;98758.63;4482487;32;33435;-83
2023/07/28 01:26:38;;;;;;;4.68;1.98;;;;;;;19.66;53.21;98767.72;4483702;32;33528;-81
2023/07/28 01:29:06;;;;;;;4.10;2.12;;;;;;;19.67;52.80;98769.47;4483724;32;34589;-82
2023/07/28 01:31:34;;;;;;;4.20;1.90;;;;;;;19.68;52.23;98760.66;4466668;32;34929;-82
2023/07/28 01:34:02;;;;;;;3.72;2.03;;;;;;;19.61;52.46;98766.97;4476722;32;34418;-83
2023/07/28 01:36:29;;;;;;;4.95;2.30;;;;;;;19.65;52.35;98761.59;4483645;32;33487;-83
2023/07/28 01:38:57;;;;;;;5.55;2.20;;;;;;;19.78;51.89;98754.22;4483678;32;33738;-82
2023/07/28 01:41:24;;;;;;;4.95;1.80;;;;;;;19.73;52.64;98756.09;4483790;32;34074;-87
2023/07/28 01:43:55;;;;;;;4.18;2.15;;;;;;;19.80;51.95;98762.91;4483587;32;34083;-83
2023/07/28 01:46:23;;;;;;;4.50;2.00;;;;;;;19.72;52.14;98751.75;4484071;32;34367;-84
2023/07/28 01:48:51;;;;;;;6.28;2.15;;;;;;;19.71;52.26;98750.06;4483283;32;33906;-82
2023/07/28 01:51:20;;;;;;;7.10;2.05;;;;;;;19.77;52.35;98752.47;4483888;32;33409;-88
2023/07/28 01:53:47;;;;;;;4.93;2.30;;;;;;;19.96;51.74;98759.78;4483480;32;33395;-82
2023/07/28 01:56:15;;;;;;;5.35;2.03;;;;;;;19.64;52.08;98759.88;4483743;32;34571;-82
2023/07/28 01:58:43;;;;;;;4.55;2.00;;;;;;;19.89;51.35;98753.88;4469920;32;33211;-81
2023/07/28 02:01:12;;;;;;;4.50;2.08;;;;;;;19.82;51.56;98757.63;4483784;32;34110;-82
2023/07/28 02:03:40;;;;;;;4.15;1.87;;;;;;;19.83;51.50;98752.28;4482947;32;34733;-81
2023/07/28 02:06:08;;;;;;;4.07;1.87;;;;;;;19.92;51.38;98744.09;4483644;32;34215;-82
2023/07/28 02:08:36;;;;;;;5.40;2.33;;;;;;;19.55;51.87;98749.63;4483586;32;33980;-83
2023/07/28 02:11:04;;;;;;;5.22;1.90;;;;;;;19.71;51.94;98747.41;4483494;32;35075;-82
2023/07/28 02:13:33;;;;;;;4.03;1.80;;;;;;;19.85;51.80;98755.75;4483654;32;34037;-82
2023/07/28 02:16:04;;;;;;;5.32;1.85;;;;;;;19.75;51.97;98756.94;4483301;32;33180;-86
2023/07/28 02:18:32;;;;;;;4.03;1.80;;;;;;;19.55;52.56;98748.78;4482234;32;34830;-82
2023/07/28 02:20:59;;;;;;;4.12;2.00;;;;;;;19.90;51.95;98758.22;4483849;32;34559;-83
2023/07/28 02:23:27;;;;;;;4.57;1.98;;;;;;;19.87;51.56;98753.91;4483504;32;33711;-82
2023/07/28 02:25:55;;;;;;;5.50;2.10;;;;;;;19.84;51.87;98750.53;4483369;32;33550;-83
2023/07/28 02:28:22;;;;;;;4.43;2.03;;;;;;;19.92;51.29;98748.50;4483286;32;33110;-83
2023/07/28 02:30:50;;;;;;;4.97;2.08;;;;;;;20.02;51.32;98743.81;4482659;32;34185;-82
2023/07/28 02:33:18;;;;;;;3.78;2.00;;;;;;;19.64;51.74;98743.25;4483029;32;33984;-82
2023/07/28 02:35:45;;;;;;;5.05;2.42;;;;;;;19.51;51.70;98747.12;4483590;32;33515;-82
2023/07/28 02:38:13;;;;;;;4.35;2.25;;;;;;;19.76;51.55;98747.28;4483337;32;33651;-82
2023/07/28 02:40:40;;;;;;;4.78;2.00;;;;;;;19.86;51.11;98751.34;4482252;32;33777;-82
2023/07/28 02:43:08;;;;;;;4.65;2.12;;;;;;;19.51;52.50;98742.75;4483261;32;34771;-81
2023/07/28 02:45:35;;;;;;;3.85;1.90;;;;;;;19.56;52.36;98739.97;4483428;32;33227;-82
2023/07/28 02:48:04;;;;;;;4.03;1.70;;;;;;;19.56;52.56;98747.84;4483520;32;34240;-83
2023/07/28 02:50:31;;;;;;;3.25;1.58;;;;;;;19.79;51.73;98737.50;4483323;31;34243;-82
2023/07/28 02:52:58;;;;;;;4.95;1.70;;;;;;;19.74;51.86;98739.44;4483337;32;33908;-82
2023/07/28 02:55:26;;;;;;;5.03;1.80;;;;;;;19.57;52.01;98734.66;4483206;32;33562;-82
2023/07/28 02:57:54;;;;;;;4.43;2.00;;;;;;;19.68;52.02;98739.62;4483543;32;34635;-81
2023/07/28 03:00:21;;;;;;;5.37;2.28;;;;;;;19.74;51.82;98744.69;4482080;32;34237;-81
2023/07/28 03:02:49;;;;;;;5.43;2.28;;;;;;;19.83;51.53;98744.41;4483219;32;33716;-82
2023/07/28 03:05:16;;;;;;;4.87;1.87;;;;;;;19.76;51.61;98747.28;4483508;32;34265;-85
2023/07/28 03:07:47;;;;;;;3.67;2.05;;;;;;;19.72;51.57;98743.87;4483221;32;33727;-82
2023/07/28 03:10:16;;;;;;;3.92;1.83;;;;;;;19.58;52.55;98743.41;4481760;32;34075;-82
2023/07/28 03:12:44;;;;;;;3.97;2.03;;;;;;;19.63;52.20;98741.53;4483106;32;34673;-83
2023/07/28 03:15:12;;;;;;;5.22;1.73;;;;;;;19.75;52.25;98742.94;4482946;32;33500;-82
2023/07/28 03:17:40;;;;;;;4.00;2.15;;;;;;;19.60;52.64;98749.47;4483191;32;33966;-83
2023/07/28 03:20:08;;;;;;;3.95;1.95;;;;;;;19.81;51.78;98746.25;4483422;32;33864;-82
2023/07/28 03:22:35;;;;;;;6.12;1.65;;;;;;;19.85;51.58;98742.59;4482717;32;34674;-82
2023/07/28 03:25:03;;;;;;;4.18;1.95;;;;;;;20.18;50.53;98745.03;4483178;32;33486;-83
2023/07/28 03:27:31;;;;;;;4.57;2.15;;;;;;;19.78;51.99;98729.69;4483131;32;34919;-83
2023/07/28 03:29:59;;;;;;;4.10;1.95;;;;;;;19.93;52.09;98729.19;4482746;32;34178;-82
2023/07/28 03:32:27;;;;;;;6.00;2.33;;;;;;;19.87;51.72;98734.63;4483281;32;34096;-82
2023/07/28 03:34:55;;;;;;;4.90;2.00;;;;;;;19.86;51.36;98728.53;4482860;32;33667;-82
2023/07/28 03:37:22;;;;;;;4.75;1.73;;;;;;;19.57;51.56;98725.91;4482525;32;34767;-83
2023/07/28 03:39:50;;;;;;;4.30;1.87;;;;;;;19.89;51.40;98733.69;4482956;32;34971;-87
2023/07/28 03:42:17;;;;;;;4.28;1.85;;;;;;;19.88;51.29;98734.59;4483391;32;33683;-81
2023/07/28 03:44:45;;;;;;;5.05;2.10;;;;;;;19.96;50.97;98730.84;4468432;32;33079;-83
2023/07/28 03:47:14;;;;;;;4.57;2.15;;;;;;;19.93;50.45;98737.94;4483039;32;33929;-83
2023/07/28 03:49:41;;;;;;;5.25;2.28;;;;;;;20.08;50.71;98733.09;4481214;32;34909;-82
2023/07/28 03:52:09;;;;;;;4.80;2.28;;;;;;;19.80;51.32;98733.97;4482705;32;34689;-82
2023/07/28 03:54:36;;;;;;;5.72;1.80;;;;;;;19.76;51.53;98723.59;4483245;32;33000;-82
2023/07/28 03:57:04;;;;;;;4.70;1.98;;;;;;;19.78;51.27;98724.44;4482760;32;34821;-82
2023/07/28 03:59:32;;;;;;;4.07;1.80;;;;;;;19.98;51.06;98726.41;4482687;32;35030;-82
2023/07/28 04:02:00;;;;;;;4.57;1.90;;;;;;;19.87;51.50;98732.00;4482879;32;33998;-82
2023/07/28 04:04:28;;;;;;;4.40;2.10;;;;;;;19.82;51.70;98737.44;4481032;32;33152;-83
2023/07/28 04:06:55;;;;;;;4.97;2.08;;;;;;;19.97;51.75;98743.13;4482468;32;34088;-82
2023/07/28 04:09:23;;;;;;;3.95;2.00;;;;;;;19.93;52.36;98743.22;4482728;32;34148;-83
2023/07/28 04:11:51;;;;;;;6.22;2.12;;;;;;;20.10;52.08;98747.06;4481365;32;33223;-82
2023/07/28 04:14:19;;;;;;;3.53;1.87;;;;;;;20.16;51.87;98750.34;4482651;32;33961;-83
2023/07/28 04:16:46;;;;;;;5.60;2.45;;;;;;;19.83;52.50;98743.53;4482625;32;34337;-82
2023/07/28 04:19:14;;;;;;;4.45;1.98;;;;;;;19.96;50.88;98738.75;4482100;32;34967;-83
2023/07/28 04:21:42;;;;;;;4.60;2.03;;;;;;;19.96;51.53;98744.84;4482134;32;34023;-83
2023/07/28 04:24:10;;;;;;;3.97;1.87;;;;;;;20.21;52.37;98747.56;4481688;32;34652;-82
2023/07/28 04:26:38;;;;;;;4.70;1.70;;;;;;;20.11;52.88;98757.53;4481366;32;33607;-83
2023/07/28 04:29:05;;;;;;;3.35;1.52;;;;;;;20.45;52.38;98763.44;4482625;32;33971;-82
2023/07/28 04:31:33;;;;;;;4.93;2.00;;;;;;;20.08;53.90;98764.69;4482739;32;33902;-82
2023/07/28 04:34:03;;;;;;;2.80;1.60;;;;;;;20.12;53.45;98767.16;4481948;32;33550;-87
2023/07/28 04:36:33;;;;;;;4.70;1.80;;;;;;;20.09;53.65;98758.50;4481387;32;32294;-83
2023/07/28 04:39:02;;;;;;;3.03;1.62;;;;;;;20.20;53.72;98764.28;4482925;32;34239;-83
2023/07/28 04:41:29;;;;;;;3.95;2.10;;;;;;;20.34;53.74;98756.78;4481001;32;34067;-83
2023/07/28 04:43:57;;;;;;;3.95;1.75;;;;;;;20.57;53.65;98752.53;4482460;32;34294;-82
2023/07/28 04:46:25;;;;;;;5.40;2.00;;;;;;;20.25;53.07;98738.66;4482633;32;34062;-83
2023/07/28 04:48:54;;;;;;;6.60;2.03;;;;;;;20.34;51.35;98730.47;4481932;32;34266;-83
2023/07/28 04:51:30;;;;;;;5.25;1.90;;;;;;;20.33;51.51;98718.19;4470546;32;31832;-83
2023/07/28 04:53:59;;;;;;;5.05;1.65;;;;;;;20.49;50.53;98712.41;4484164;31;32028;-82
2023/07/28 04:56:26;;;;;;;4.00;2.10;;;;;;;20.24;51.85;98717.66;4484058;32;34055;-87
2023/07/28 04:58:54;;;;;;;4.18;1.95;;;;;;;20.20;51.71;98721.31;4482893;32;33923;-83
2023/07/28 05:01:21;;;;;;;5.07;2.30;;;;;;;20.32;51.45;98726.16;4482785;32;33607;-82
2023/07/28 05:03:49;;;;;;;7.82;2.00;;;;;;;20.29;51.83;98719.22;4484165;32;33159;-83
2023/07/28 05:06:17;;;;;;;7.07;1.90;;;;;;;20.42;51.27;98728.44;4484283;32;35351;-82
2023/07/28 05:08:45;;;;;;;5.40;2.45;;;;;;;20.57;51.15;98734.09;4482678;32;35301;-82
2023/07/28 05:11:13;;;;;;;5.50;2.50;;;;;;;20.51;51.02;98721.16;4483010;32;35605;-82
2023/07/28 05:13:41;;;;;;;6.57;2.37;;;;;;;20.71;49.86;98720.44;4482938;32;33869;-82
2023/07/28 05:16:08;;;;;;;5.28;2.30;;;;;;;20.29;50.91;98732.38;4483841;32;34599;-82
2023/07/28 05:18:42;;;;;;;5.78;2.47;;;;;;;20.67;50.27;98732.88;4482767;32;33074;-82
2023/07/28 05:21:12;;;;;;;6.45;2.22;;;;;;;20.98;50.00;98721.22;4483045;32;33447;-83
2023/07/28 05:23:39;;;;;;;4.85;2.05;;;;;;;21.32;49.59;98726.97;4483839;32;33932;-81
2023/07/28 05:26:07;;;;;;;5.05;2.05;;;;;;;21.46;48.10;98721.19;4483080;32;33750;-85
2023/07/28 05:28:35;;;;;;;6.40;2.08;;;;;;;21.30;48.30;98722.69;4483536;32;34988;-83
2023/07/28 05:31:07;;;;;;;5.28;2.15;;;;;;;21.45;48.92;98726.53;4483908;32;33454;-83
2023/07/28 05:33:34;;;;;;;4.72;2.17;;;;;;;21.39;48.45;98732.91;4482654;32;33608;-83
2023/07/28 05:36:03;;;;;;;7.30;1.90;;;;;;;21.08;49.11;98739.28;4483860;32;34748;-86
2023/07/28 05:38:33;;;;;;;3.50;1.75;;;;;;;21.09;49.58;98727.81;4482716;32;34212;-82
2023/07/28 05:41:03;;;;;;;3.65;1.83;;;;;;;21.09;49.59;98732.22;4483895;32;33572;-82
2023/07/28 05:43:31;;;;;;;3.12;1.42;;;;;;;21.23;49.26;98726.47;4482521;32;33452;-80
2023/07/28 05:46:00;;;;;;;6.72;2.28;;;;;;;21.05;49.80;98738.53;4482392;32;34321;-80
2023/07/28 05:48:30;;;;;;;3.80;1.62;;;;;;;21.07;49.53;98731.44;4477241;32;33862;-86
2023/07/28 05:50:57;;;;;;;4.78;2.05;;;;;;;21.12;49.91;98737.41;4482121;32;33835;-83
2023/07/28 05:53:25;;;;;;;6.20;2.05;;;;;;;20.84;50.50;98746.31;4483652;32;33061;-82
2023/07/28 05:55:53;;;;;;;6.82;2.17;;;;;;;20.90;50.50;98755.75;4483955;32;33514;-82
2023/07/28 05:58:21;;;;;;;5.30;1.92;;;;;;;21.08;49.20;98754.25;4483793;32;34113;-82
2023/07/28 06:00:48;;;;;;;4.12;1.75;;;;;;;21.28;49.51;98754.34;4483540;32;32979;-81
2023/07/28 06:03:17;;;;;;;5.00;2.08;;;;;;;21.84;48.91;98750.50;4482437;32;32855;-87
2023/07/28 06:05:47;;;;;;;5.70;1.92;;;;;;;21.73;47.95;98750.06;4481584;31;33419;-85
2023/07/28 06:08:14;;;;;;;4.35;2.20;;;;;;;21.95;46.77;98758.84;4483728;32;33941;-80
2023/07/28 06:10:42;;;;;;;6.95;1.87;;;;;;;21.66;47.80;98757.34;4483863;32;33740;-82
2023/07/28 06:13:10;;;;;;;5.07;2.08;;;;;;;21.69;48.56;98751.09;4483710;32;32806;-82
2023/07/28 06:15:40;;;;;;;7.40;2.03;;;;;;;21.63;48.38;98757.50;4483505;32;33883;-81
2023/07/28 06:18:08;;;;;;;3.60;1.65;;;;;;;21.75;48.04;98757.00;4482507;32;34169;-80
2023/07/28 06:20:35;;;;;;;4.75;1.65;;;;;;;21.86;48.07;98749.53;4483288;32;33606;-81
2023/07/28 06:23:03;;;;;;;4.32;1.90;;;;;;;21.78;48.08;98746.34;4483587;32;34102;-87
2023/07/28 06:25:31;;;;;;;4.82;2.00;;;;;;;21.83;47.74;98744.37;4483459;32;33964;-82
2023/07/28 06:28:01;;;;;;;6.55;3.15;;;;;;;21.94;47.73;98748.38;4483684;32;34222;-81
2023/07/28 06:30:29;;;;;;;5.05;1.80;;;;;;;22.09;47.96;98753.88;4483654;32;34638;-80
2023/07/28 06:32:56;;;;;;;3.83;1.85;;;;;;;22.20;47.23;98757.88;4483515;32;33547;-81
2023/07/28 06:35:24;;;;;;;4.75;2.00;;;;;;;22.07;47.80;98758.34;4483110;32;34007;-81
2023/07/28 06:37:51;;;;;;;4.22;1.75;;;;;;;22.00;47.64;98767.44;4482499;32;33849;-82
2023/07/28 06:40:20;;;;;;;3.58;1.92;;;;;;;22.18;47.52;98760.59;4483237;32;34227;-86
2023/07/28 06:42:47;;;;;;;5.05;1.60;;;;;;;22.20;46.75;98757.88;4483096;32;33600;-83
2023/07/28 06:45:15;;;;;;;3.58;1.75;;;;;;;22.00;47.45;98745.47;4483254;32;33820;-81
2023/07/28 06:47:43;;;;;;;4.50;1.80;;;;;;;22.31;46.80;98753.00;4483300;32;34162;-82
2023/07/28 06:50:11;;;;;;;3.90;1.83;;;;;;;22.24;47.30;98747.16;4483293;32;34695;-82
2023/07/28 06:52:39;;;;;;;6.85;1.80;;;;;;;22.40;47.00;98747.38;4481979;32;33664;-82
2023/07/28 06:55:07;;;;;;;6.03;1.95;;;;;;;22.32;46.47;98747.69;4482037;32;34797;-81
2023/07/28 06:57:35;;;;;;;5.90;1.90;;;;;;;22.46;46.63;98740.94;4483000;32;33901;-81
2023/07/28 07:00:05;;;;;;;6.47;1.70;;;;;;;22.54;46.97;98736.19;4483391;32;34359;-87
2023/07/28 07:02:33;;;;;;;6.32;1.80;;;;;;;22.59;47.86;98732.44;4483276;32;34356;-82
2023/07/28 07:05:01;;;;;;;5.75;1.70;;;;;;;22.91;46.15;98735.47;4483332;32;34790;-87
2023/07/28 07:07:32;;;;;;;3.17;1.30;;;;;;;22.94;45.82;98734.50;4483322;32;34557;-83
2023/07/28 07:09:59;;;;;;;3.22;1.67;;;;;;;23.33;45.13;98737.13;4481977;32;34067;-83
2023/07/28 07:12:27;;;;;;;3.60;1.50;;;;;;;23.26;43.02;98739.22;4480795;32;33167;-82
2023/07/28 07:14:54;;;;;;;5.37;2.05;;;;;;;23.51;43.79;98735.41;4482870;32;34008;-82
2023/07/28 07:17:22;;;;;;;3.50;1.87;;;;;;;23.75;43.17;98731.66;4483090;32;34937;-82
2023/07/28 07:19:49;;;;;;;4.70;1.80;;;;;;;24.08;43.39;98730.06;4483244;32;34031;-92
2023/07/28 07:22:17;;;;;;;2.60;1.80;;;;;;;24.42;42.68;98723.97;4483211;32;34138;-87
2023/07/28 07:24:45;;;;;;;3.80;1.45;;;;;;;24.49;41.35;98720.09;4483314;32;33647;-86
2023/07/28 07:27:12;;;;;;;5.18;1.50;;;;;;;24.80;40.37;98722.00;4482989;32;34331;-83
2023/07/28 07:29:40;;;;;;;6.30;1.50;;;;;;;24.83;41.02;98707.75;4482958;32;33968;-91
2023/07/28 07:32:09;;;;;;;4.00;1.60;;;;;;;24.83;40.07;98721.00;4481688;32;34203;-82
2023/07/28 07:34:38;;;;;;;3.65;1.73;;;;;;;24.83;40.54;98724.50;4481558;32;33107;-86
2023/07/28 07:37:05;;;;;;;4.45;1.60;;;;;;;24.98;40.80;98720.19;4482894;32;34021;-84
2023/07/28 07:39:34;;;;;;;5.90;1.50;;;;;;;24.96;40.13;98724.69;4482741;32;34831;-83
2023/07/28 07:42:01;;;;;;;5.32;1.65;;;;;;;25.17;40.42;98712.97;4482871;32;33309;-83
2023/07/28 07:44:29;;;;;;;5.40;1.52;;;;;;;25.50;40.60;98704.13;4482739;32;33697;-85
2023/07/28 07:47:00;;;;;;;3.35;1.25;;;;;;;25.11;39.22;98705.34;4482530;32;34249;-81
2023/07/28 07:49:27;;;;;;;4.18;1.45;;;;;;;25.00;39.98;98703.25;4481718;32;34600;-83
2023/07/28 07:51:55;;;;;;;3.60;1.70;;;;;;;25.34;40.00;98700.59;4481503;32;34193;-90
2023/07/28 07:54:23;;;;;;;4.87;1.65;;;;;;;25.36;40.47;98704.03;4482333;32;34370;-87
2023/07/28 07:56:50;;;;;;;3.78;1.58;;;;;;;25.34;39.61;98703.25;4482695;32;34235;-83
2023/07/28 07:59:18;;;;;;;2.95;1.42;;;;;;;25.02;40.34;98704.97;4482826;32;34607;-82
2023/07/28 08:01:45;;;;;;;5.70;1.73;;;;;;;25.16;41.23;98700.66;4480113;32;33445;-82
2023/07/28 08:04:13;;;;;;;3.25;1.40;;;;;;;25.40;40.12;98697.59;4482305;32;33842;-83
2023/07/28 08:06:40;;;;;;;4.00;1.40;;;;;;;25.14;39.78;98701.69;4482008;32;34238;-85
2023/07/28 08:09:09;;;;;;;3.28;1.60;;;;;;;25.11;39.62;98702.69;4482468;32;33801;-85
2023/07/28 08:11:37;;;;;;;4.43;1.58;;;;;;;25.04;39.84;98706.59;4482391;32;33599;-82
2023/07/28 08:14:04;;;;;;;3.85;1.70;;;;;;;25.12;40.16;98707.09;4482744;32;34063;-86
2023/07/28 08:16:32;;;;;;;5.47;1.52;;;;;;;25.11;39.70;98701.84;4481565;32;33320;-84
2023/07/28 08:19:00;;;;;;;4.12;1.45;;;;;;;25.19;39.76;98705.81;4482885;32;33969;-83
2023/07/28 08:21:27;;;;;;;3.85;1.40;;;;;;;25.25;39.74;98709.91;4482638;32;33213;-83
2023/07/28 08:23:55;;;;;;;5.07;1.50;;;;;;;25.26;39.09;98700.16;4482205;32;33714;-83
2023/07/28 08:26:22;;;;;;;7.65;1.50;;;;;;;25.30;39.56;98699.03;4480973;32;33946;-81
2023/07/28 08:28:50;;;;;;;3.53;1.50;;;;;;;25.33;39.86;98710.34;4482096;32;34056;-82
2023/07/28 08:31:17;;;;;;;5.47;1.60;;;;;;;25.22;40.06;98716.22;4481875;32;33368;-81
2023/07/28 08:33:45;;;;;;;3.40;1.23;;;;;;;25.39;38.92;98707.38;4481080;32;34114;-86
2023/07/28 08:36:13;;;;;;;3.70;1.33;;;;;;;25.63;40.04;98709.59;4482306;32;34156;-82
2023/07/28 08:38:41;;;;;;;3.37;1.73;;;;;;;25.63;39.48;98709.59;4482325;32;33518;-83
2023/07/28 08:41:09;;;;;;;3.37;1.35;;;;;;;25.73;40.58;98702.84;4481959;32;33375;-82
2023/07/28 08:43:37;;;;;;;4.50;1.60;;;;;;;25.83;38.62;98705.84;4481658;32;34138;-85
2023/07/28 08:46:07;;;;;;;3.80;1.50;;;;;;;26.03;39.11;98686.97;4482336;32;34983;-81
2023/07/28 08:48:35;;;;;;;4.65;1.40;;;;;;;25.94;38.70;98693.66;4482285;32;33654;-85
2023/07/28 08:51:04;;;;;;;3.42;1.37;;;;;;;26.18;38.54;98690.53;4480756;32;34142;-88
2023/07/28 08:53:31;;;;;;;3.72;1.55;;;;;;;25.92;37.85;98689.41;4481409;32;34029;-83
2023/07/28 08:55:59;;;;;;;2.85;1.00;;;;;;;26.09;37.54;98675.13;4482041;32;34265;-81
2023/07/28 08:58:27;;;;;;;5.37;1.45;;;;;;;26.22;38.11;98677.94;4481871;32;34452;-82
2023/07/28 09:00:54;;;;;;;5.87;1.60;;;;;;;26.43;38.42;98666.87;4482425;32;33909;-83
2023/07/28 09:03:22;;;;;;;6.62;1.60;;;;;;;26.61;37.30;98672.91;4481990;32;33772;-87
2023/07/28 09:05:50;;;;;;;5.05;1.73;;;;;;;26.66;37.43;98664.66;4481844;31;34884;-82
2023/07/28 09:08:19;;;;;;;5.93;2.15;;;;;;;26.51;38.77;98662.91;4481545;32;34135;-88
2023/07/28 09:10:49;;;;;;;4.43;1.58;;;;;;;26.79;38.10;98664.78;4481879;32;34120;-89
2023/07/28 09:13:17;;;;;;;4.65;1.50;;;;;;;26.93;38.24;98662.09;4477469;32;34676;-80
2023/07/28 09:15:45;;;;;;;3.42;1.27;;;;;;;26.71;37.41;98665.25;4481944;32;34120;-86
2023/07/28 09:18:16;;;;;;;5.72;1.52;;;;;;;26.71;37.96;98656.38;4480317;32;33654;-84
2023/07/28 09:20:43;;;;;;;4.37;1.67;;;;;;;27.03;38.53;98665.03;4480576;32;33349;-83
2023/07/28 09:23:14;;;;;;;4.18;1.50;;;;;;;26.88;37.95;98664.19;4481656;32;33819;-91
2023/07/28 09:25:42;;;;;;;4.97;1.70;;;;;;;26.99;38.81;98666.19;4481416;32;34488;-84
2023/07/28 09:28:10;;;;;;;5.50;1.40;;;;;;;26.72;38.48;98666.09;4481600;32;34674;-83
2023/07/28 09:30:46;;;;;;;3.30;1.60;;;;;;;26.97;37.69;98662.75;4467488;32;33455;-89
2023/07/28 09:33:28;;;;;;;5.32;1.70;;;;;;;26.88;39.28;98670.38;4481541;32;34827;-89
2023/07/28 09:35:56;;;;;;;6.68;1.65;;;;;;;26.81;38.06;98673.50;4480462;32;33817;-89
2023/07/28 09:38:27;;;;;;;4.40;1.35;;;;;;;26.75;38.55;98660.59;4482907;32;34612;-89
2023/07/28 09:40:56;;;;;;;6.50;1.77;;;;;;;26.86;38.92;98658.13;4482296;32;34290;-86
2023/07/28 09:43:23;;;;;;;3.10;1.55;;;;;;;27.36;38.42;98656.78;4482437;32;34811;-83
2023/07/28 09:45:51;;;;;;;3.72;1.35;;;;;;;27.55;37.93;98654.63;4483729;32;34295;-91
2023/07/28 09:48:19;;;;;;;4.72;1.20;;;;;;;27.76;37.42;98657.72;4483821;32;33994;-88
2023/07/28 09:50:47;;;;;;;3.60;1.70;;;;;;;27.64;37.03;98662.00;4482164;32;33563;-88
2023/07/28 09:53:16;;;;;;;4.93;1.40;;;;;;;27.80;36.96;98653.03;4469552;32;33668;-82
2023/07/28 09:55:44;;;;;;;3.45;1.40;;;;;;;27.84;37.74;98657.22;4483536;32;34018;-83
2023/07/28 09:58:16;;;;;;;3.15;1.30;;;;;;;27.74;37.90;98650.78;4483549;32;33525;-88
2023/07/28 10:00:44;;;;;;;4.57;1.67;;;;;;;27.57;37.17;98657.19;4482782;32;33384;-90
2023/07/28 10:03:12;;;;;;;4.28;1.30;;;;;;;27.87;37.40;98643.69;4483481;31;34111;-88
2023/07/28 10:05:40;;;;;;;3.75;1.42;;;;;;;27.99;37.82;98650.84;4482337;32;33931;-82
2023/07/28 10:08:08;;;;;;;5.07;1.42;;;;;;;28.00;36.77;98649.06;4481738;32;33909;-83
2023/07/28 10:10:35;;;;;;;4.05;1.60;;;;;;;27.99;36.84;98642.88;4483588;32;32424;-93
2023/07/28 10:13:04;;;;;;;4.22;1.37;;;;;;;28.24;36.67;98636.75;4481691;32;33961;-81
2023/07/28 10:15:32;;;;;;;3.42;1.62;;;;;;;28.22;37.04;98643.97;4483680;32;35116;-83
2023/07/28 10:18:00;;;;;;;6.87;1.58;;;;;;;28.21;37.19;98647.59;4483254;32;33993;-90
2023/07/28 10:20:34;;;;;;;3.45;1.25;;;;;;;28.43;37.01;98640.84;4481291;32;33131;-86
2023/07/28 10:23:07;;;;;;;4.60;1.90;;;;;;;28.55;37.26;98651.53;4483072;32;33987;-87
2023/07/28 10:25:36;;;;;;;3.47;1.73;;;;;;;28.53;36.46;98649.94;4483469;32;33725;-81
2023/07/28 10:28:05;;;;;;;4.53;1.50;;;;;;;28.40;37.33;98651.72;4481213;32;33868;-85
2023/07/28 10:30:51;;;;;;;7.53;1.30;;;;;;;28.55;37.29;98643.50;4482158;32;33290;-85
2023/07/28 10:33:36;;;;;;;3.87;1.30;;;;;;;28.51;36.57;98650.03;4482950;32;32628;-82
2023/07/28 10:36:16;;;;;;;7.70;1.55;;;;;;;28.62;36.99;98642.13;4481817;32;35082;-85
2023/07/28 10:38:43;;;;;;;4.90;1.33;;;;;;;28.50;37.52;98637.66;4477413;32;34097;-89
2023/07/28 10:41:14;;;;;;;3.92;1.52;;;;;;;28.59;37.02;98655.69;4482161;32;33383;-86
2023/07/28 10:43:42;;;;;;;4.82;1.65;;;;;;;28.59;37.70;98658.34;4481196;32;35280;-85
2023/07/28 10:46:12;;;;;;;4.32;1.40;;;;;;;28.67;37.42;98648.97;4479715;32;33934;-82
2023/07/28 10:48:44;;;;;;;3.08;1.40;;;;;;;28.59;37.70;98658.34;4481198;32;34319;-82
2023/07/28 10:51:19;;;;;;;3.60;1.42;;;;;;;28.75;37.38;98658.16;4481735;31;33498;-82
2023/07/28 10:53:50;;;;;;;4.55;1.75;;;;;;;28.99;35.85;98654.75;4469151;32;32456;-83
2023/07/28 10:56:18;;;;;;;5.78;1.67;;;;;;;29.04;35.37;98645.44;4483310;32;33963;-83
2023/07/28 10:58:46;;;;;;;3.62;1.35;;;;;;;28.94;35.90;98654.16;4483013;32;33795;-82
2023/07/28 11:01:15;;;;;;;5.40;1.52;;;;;;;29.01;36.24;98648.31;4483781;32;33711;-83
2023/07/28 11:03:48;;;;;;;6.60;1.75;;;;;;;28.90;36.84;98650.00;4482940;32;33742;-86
2023/07/28 11:06:15;;;;;;;4.62;1.65;;;;;;;28.86;37.02;98654.72;4482666;32;34234;-83
2023/07/28 11:08:43;;;;;;;4.93;1.52;;;;;;;28.99;37.31;98647.59;4483218;32;33907;-84
2023/07/28 11:11:11;;;;;;;6.15;1.65;;;;;;;29.11;36.27;98643.19;4482749;32;33440;-82
2023/07/28 11:13:39;;;;;;;10.13;2.45;;;;;;;29.21;35.36;98638.91;4482779;32;34038;-83
2023/07/28 11:16:08;;;;;;;3.60;1.50;;;;;;;29.28;35.55;98640.16;4482565;32;34922;-86
2023/07/28 11:18:36;;;;;;;5.35;1.48;;;;;;;29.05;34.90;98641.78;4482307;32;34052;-91
2023/07/28 11:21:03;;;;;;;3.50;1.40;;;;;;;29.16;35.29;98641.03;4482915;32;34123;-91
2023/07/28 11:23:31;;;;;;;3.12;1.42;;;;;;;29.54;35.13;98640.06;4482504;32;33982;-88
2023/07/28 11:25:58;;;;;;;2.72;1.25;;;;;;;29.41;34.28;98639.28;4482201;32;34178;-82
2023/07/28 11:28:26;;;;;;;9.07;1.67;;;;;;;29.48;34.10;98638.72;4482937;32;33694;-81
2023/07/28 11:30:53;;;;;;;3.60;1.55;;;;;;;29.46;34.43;98648.62;4482600;32;33079;-84
2023/07/28 11:33:21;;;;;;;4.35;1.48;;;;;;;29.63;34.93;98642.09;4481587;32;34051;-83
2023/07/28 11:35:49;;;;;;;2.97;1.27;;;;;;;29.37;34.64;98646.66;4481900;32;35066;-84
2023/07/28 11:38:16;;;;;;;3.58;1.48;;;;;;;29.45;34.35;98635.41;4482863;32;33132;-86
2023/07/28 11:40:45;;;;;;;3.62;1.37;;;;;;;29.65;34.84;98636.63;4481002;32;33446;-86